Hester, Louisiana
Current Conditions -  °F | °C
As of 5:55 AM on Tuesday 21 Oct 2014 (Local Time) from K1L0 Reporting Station
Clear Clear  
Wind Chill: 58°   Ceiling: Unl
Heat Index: 58°   Visibility: 7mi
Dew Point: 56°   Wind: 3mph
Humidity: 94%   Direction: 10°N
Pressure: 30.03"   Gusts: NA
Location:  30.02°N, 90.78°W
Report Text: K1L0 211055Z AUTO 01003KT 7SM CLR 14/13 A3003 RMK AO2 T01430133
Loading
Personal Weather Stations






























Interactive Weather Map
Tropical Storm Tracking
New forecast layout! Learn more

10-Day Weather Forecast

Advertisements
Track Severe Weather on mobile